METAR AND TAF INFORMATION
METAR FOR ORBI
ADDS - METARS form results

(2356 UTC 05 July 2020)
Data provider http://aviationweather.gov/metar/data/
 
Forecast for: ORBI (BAGHDAD INTL , IQ)
Text: TAF ORBI 051700Z 0518/0618 32010KT CAVOK
Forecast period: 1800 UTC 05 July 2020 to 1800 UTC 06 July 2020
Forecast type: FROM: standard forecast or significant change
Winds: from the NW (320 degrees) at 12 MPH (10 knots; 5.1 m/s)
Visibility: 6 or more miles 10+ km)
Ceiling: unknown
Clouds: missing
Weather: NSW  (no significant weather)

 AIRPORT MAP

 RUNWAY INFORMATION

 AIRPORT FREQUENCIES
Type ACC Name BALAD ACC Frequency 123.52 MHZ
Type APP Name APP Frequency 128.2 MHZ
Type ATIS Name INFO Frequency 127.25 MHZ
Type DEP Name DEP Frequency 131.9 MHZ
Type GND Name GND Frequency 121.7 MHZ
Type HEL Name HELO Frequency 131.7 MHZ
Type PMSV Name METRO Frequency 116.15 MHZ
Type POST Name COMD POST Frequency 133.5 MHZ
Type RDO Name RDO Frequency 127.35 MHZ
Type TWR Name TWR Frequency 118.7 MHZ

 AIRPORT NEAR NAVIGATION AIDS
Type TACAN Name Baghdad Frequency 133700 KHZ



2018 Air Astana Virtual Airline